sensor_id;sensor_type;location;lat;lon;timestamp;P1;durP1;ratioP1;P2;durP2;ratioP2
61915;SDS011;47868;51.326;6.550;2022-12-29T00:00:09;2.30;;;1.00;;
61915;SDS011;47868;51.326;6.550;2022-12-29T00:02:35;1.23;;;1.13;;
61915;SDS011;47868;51.326;6.550;2022-12-29T00:05:01;1.40;;;1.30;;
61915;SDS011;47868;51.326;6.550;2022-12-29T00:07:27;1.35;;;1.20;;
61915;SDS011;47868;51.326;6.550;2022-12-29T00:09:53;1.75;;;1.10;;
61915;SDS011;47868;51.326;6.550;2022-12-29T00:12:19;1.00;;;1.00;;
61915;SDS011;47868;51.326;6.550;2022-12-29T00:14:45;0.82;;;0.82;;
61915;SDS011;47868;51.326;6.550;2022-12-29T00:17:30;1.25;;;1.00;;
61915;SDS011;47868;51.326;6.550;2022-12-29T00:19:56;1.13;;;1.10;;
61915;SDS011;47868;51.326;6.550;2022-12-29T00:22:41;1.08;;;1.02;;
61915;SDS011;47868;51.326;6.550;2022-12-29T00:25:25;0.90;;;0.90;;
61915;SDS011;47868;51.326;6.550;2022-12-29T00:28:10;1.13;;;1.10;;
61915;SDS011;47868;51.326;6.550;2022-12-29T00:30:58;0.93;;;0.90;;
61915;SDS011;47868;51.326;6.550;2022-12-29T00:33:42;1.10;;;1.08;;
61915;SDS011;47868;51.326;6.550;2022-12-29T00:36:28;1.13;;;1.00;;
61915;SDS011;47868;51.326;6.550;2022-12-29T00:38:57;1.65;;;1.00;;
61915;SDS011;47868;51.326;6.550;2022-12-29T00:41:43;1.85;;;1.02;;
61915;SDS011;47868;51.326;6.550;2022-12-29T00:44:28;0.85;;;0.85;;
61915;SDS011;47868;51.326;6.550;2022-12-29T00:46:54;0.85;;;0.85;;
61915;SDS011;47868;51.326;6.550;2022-12-29T00:49:20;0.75;;;0.75;;
61915;SDS011;47868;51.326;6.550;2022-12-29T00:51:55;0.90;;;0.90;;
61915;SDS011;47868;51.326;6.550;2022-12-29T00:54:21;1.95;;;0.90;;
61915;SDS011;47868;51.326;6.550;2022-12-29T00:56:48;1.63;;;0.77;;
61915;SDS011;47868;51.326;6.550;2022-12-29T00:59:14;1.25;;;1.00;;
61915;SDS011;47868;51.326;6.550;2022-12-29T01:01:40;0.80;;;0.80;;
61915;SDS011;47868;51.326;6.550;2022-12-29T01:04:06;1.00;;;0.90;;
61915;SDS011;47868;51.326;6.550;2022-12-29T01:06:33;1.27;;;0.80;;
61915;SDS011;47868;51.326;6.550;2022-12-29T01:08:59;0.80;;;0.80;;
61915;SDS011;47868;51.326;6.550;2022-12-29T01:11:44;1.05;;;0.95;;
61915;SDS011;47868;51.326;6.550;2022-12-29T01:14:10;0.88;;;0.88;;
61915;SDS011;47868;51.326;6.550;2022-12-29T01:16:36;1.15;;;0.90;;
61915;SDS011;47868;51.326;6.550;2022-12-29T01:19:02;0.80;;;0.80;;
61915;SDS011;47868;51.326;6.550;2022-12-29T01:21:28;0.70;;;0.70;;
61915;SDS011;47868;51.326;6.550;2022-12-29T01:23:54;3.30;;;1.10;;
61915;SDS011;47868;51.326;6.550;2022-12-29T01:26:20;0.80;;;0.80;;
61915;SDS011;47868;51.326;6.550;2022-12-29T01:28:46;0.77;;;0.77;;
61915;SDS011;47868;51.326;6.550;2022-12-29T01:31:13;0.85;;;0.85;;
61915;SDS011;47868;51.326;6.550;2022-12-29T01:33:39;0.80;;;0.80;;
61915;SDS011;47868;51.326;6.550;2022-12-29T01:36:07;0.60;;;0.60;;
61915;SDS011;47868;51.326;6.550;2022-12-29T01:38:33;2.25;;;0.68;;
61915;SDS011;47868;51.326;6.550;2022-12-29T01:41:00;0.60;;;0.60;;
61915;SDS011;47868;51.326;6.550;2022-12-29T01:43:38;0.80;;;0.80;;
61915;SDS011;47868;51.326;6.550;2022-12-29T01:46:04;2.25;;;0.82;;
61915;SDS011;47868;51.326;6.550;2022-12-29T01:48:33;1.35;;;0.80;;
61915;SDS011;47868;51.326;6.550;2022-12-29T01:50:59;0.70;;;0.70;;
61915;SDS011;47868;51.326;6.550;2022-12-29T01:53:28;0.90;;;0.90;;
61915;SDS011;47868;51.326;6.550;2022-12-29T01:55:56;0.70;;;0.70;;
61915;SDS011;47868;51.326;6.550;2022-12-29T01:58:24;1.65;;;0.85;;
61915;SDS011;47868;51.326;6.550;2022-12-29T02:00:52;0.90;;;0.70;;
61915;SDS011;47868;51.326;6.550;2022-12-29T02:03:18;1.25;;;1.00;;
61915;SDS011;47868;51.326;6.550;2022-12-29T02:05:50;2.28;;;1.25;;
61915;SDS011;47868;51.326;6.550;2022-12-29T02:08:17;1.20;;;1.10;;
61915;SDS011;47868;51.326;6.550;2022-12-29T02:10:43;2.17;;;0.90;;
61915;SDS011;47868;51.326;6.550;2022-12-29T02:13:10;2.13;;;0.80;;
61915;SDS011;47868;51.326;6.550;2022-12-29T02:28:55;1.20;;;1.00;;
61915;SDS011;47868;51.326;6.550;2022-12-29T02:34:07;1.20;;;1.10;;
61915;SDS011;47868;51.326;6.550;2022-12-29T02:36:40;3.15;;;1.48;;
61915;SDS011;47868;51.326;6.550;2022-12-29T02:39:12;1.60;;;1.02;;
61915;SDS011;47868;51.326;6.550;2022-12-29T02:44:28;2.13;;;1.17;;
61915;SDS011;47868;51.326;6.550;2022-12-29T02:47:04;1.00;;;0.98;;
61915;SDS011;47868;51.326;6.550;2022-12-29T02:52:46;1.75;;;1.15;;
61915;SDS011;47868;51.326;6.550;2022-12-29T02:55:10;1.40;;;1.30;;
61915;SDS011;47868;51.326;6.550;2022-12-29T02:57:37;2.00;;;1.38;;
61915;SDS011;47868;51.326;6.550;2022-12-29T03:00:04;1.27;;;1.17;;
61915;SDS011;47868;51.326;6.550;2022-12-29T03:05:11;2.25;;;1.10;;
61915;SDS011;47868;51.326;6.550;2022-12-29T03:10:17;2.60;;;1.38;;
61915;SDS011;47868;51.326;6.550;2022-12-29T03:16:23;1.30;;;1.20;;
61915;SDS011;47868;51.326;6.550;2022-12-29T03:19:04;2.83;;;1.20;;
61915;SDS011;47868;51.326;6.550;2022-12-29T03:21:34;1.95;;;1.15;;
61915;SDS011;47868;51.326;6.550;2022-12-29T03:24:20;1.98;;;0.90;;
61915;SDS011;47868;51.326;6.550;2022-12-29T03:26:48;1.10;;;1.00;;
61915;SDS011;47868;51.326;6.550;2022-12-29T03:29:15;2.25;;;1.00;;
61915;SDS011;47868;51.326;6.550;2022-12-29T03:31:42;2.53;;;1.15;;
61915;SDS011;47868;51.326;6.550;2022-12-29T03:34:09;1.73;;;0.95;;
61915;SDS011;47868;51.326;6.550;2022-12-29T03:36:46;1.83;;;1.25;;
61915;SDS011;47868;51.326;6.550;2022-12-29T03:39:13;1.48;;;1.30;;
61915;SDS011;47868;51.326;6.550;2022-12-29T03:41:40;1.33;;;1.20;;
61915;SDS011;47868;51.326;6.550;2022-12-29T03:44:07;2.10;;;0.90;;
61915;SDS011;47868;51.326;6.550;2022-12-29T03:46:34;5.10;;;1.30;;
61915;SDS011;47868;51.326;6.550;2022-12-29T03:49:00;3.50;;;1.15;;
61915;SDS011;47868;51.326;6.550;2022-12-29T03:51:26;1.58;;;1.00;;
61915;SDS011;47868;51.326;6.550;2022-12-29T03:53:51;2.17;;;1.13;;
61915;SDS011;47868;51.326;6.550;2022-12-29T03:56:17;2.83;;;1.10;;
61915;SDS011;47868;51.326;6.550;2022-12-29T03:58:43;1.83;;;1.05;;
61915;SDS011;47868;51.326;6.550;2022-12-29T04:01:09;1.45;;;1.08;;
61915;SDS011;47868;51.326;6.550;2022-12-29T04:03:35;1.20;;;1.13;;
61915;SDS011;47868;51.326;6.550;2022-12-29T04:06:01;1.05;;;0.80;;
61915;SDS011;47868;51.326;6.550;2022-12-29T04:08:27;0.88;;;0.88;;
61915;SDS011;47868;51.326;6.550;2022-12-29T04:10:53;2.38;;;1.35;;
61915;SDS011;47868;51.326;6.550;2022-12-29T04:13:19;0.80;;;0.80;;
61915;SDS011;47868;51.326;6.550;2022-12-29T04:15:45;1.10;;;1.00;;
61915;SDS011;47868;51.326;6.550;2022-12-29T04:18:12;1.38;;;0.90;;
61915;SDS011;47868;51.326;6.550;2022-12-29T04:20:38;1.48;;;1.00;;
61915;SDS011;47868;51.326;6.550;2022-12-29T04:23:23;1.73;;;0.98;;
61915;SDS011;47868;51.326;6.550;2022-12-29T04:25:49;1.58;;;1.08;;
61915;SDS011;47868;51.326;6.550;2022-12-29T04:28:15;1.35;;;0.85;;
61915;SDS011;47868;51.326;6.550;2022-12-29T04:30:42;1.25;;;1.00;;
61915;SDS011;47868;51.326;6.550;2022-12-29T04:33:08;1.30;;;0.88;;
61915;SDS011;47868;51.326;6.550;2022-12-29T04:35:35;1.50;;;0.90;;
61915;SDS011;47868;51.326;6.550;2022-12-29T04:38:01;1.40;;;0.82;;
61915;SDS011;47868;51.326;6.550;2022-12-29T04:40:27;2.00;;;1.00;;
61915;SDS011;47868;51.326;6.550;2022-12-29T04:42:53;2.22;;;1.10;;
61915;SDS011;47868;51.326;6.550;2022-12-29T04:45:19;2.55;;;1.00;;
61915;SDS011;47868;51.326;6.550;2022-12-29T04:47:45;1.20;;;1.10;;
61915;SDS011;47868;51.326;6.550;2022-12-29T04:50:12;1.15;;;0.90;;
61915;SDS011;47868;51.326;6.550;2022-12-29T04:52:38;0.90;;;0.90;;
61915;SDS011;47868;51.326;6.550;2022-12-29T04:55:04;1.00;;;0.95;;
61915;SDS011;47868;51.326;6.550;2022-12-29T04:57:30;2.55;;;0.90;;
61915;SDS011;47868;51.326;6.550;2022-12-29T04:59:56;2.88;;;1.00;;
61915;SDS011;47868;51.326;6.550;2022-12-29T05:02:22;6.35;;;1.23;;
61915;SDS011;47868;51.326;6.550;2022-12-29T05:04:48;1.60;;;0.82;;
61915;SDS011;47868;51.326;6.550;2022-12-29T05:07:14;1.05;;;0.85;;
61915;SDS011;47868;51.326;6.550;2022-12-29T05:09:40;1.17;;;0.82;;
61915;SDS011;47868;51.326;6.550;2022-12-29T05:12:06;1.92;;;1.00;;
61915;SDS011;47868;51.326;6.550;2022-12-29T05:14:32;3.95;;;1.08;;
61915;SDS011;47868;51.326;6.550;2022-12-29T05:16:58;3.40;;;1.25;;
61915;SDS011;47868;51.326;6.550;2022-12-29T05:19:24;3.47;;;1.40;;
61915;SDS011;47868;51.326;6.550;2022-12-29T05:21:50;0.90;;;0.90;;
61915;SDS011;47868;51.326;6.550;2022-12-29T05:24:16;5.95;;;1.65;;
61915;SDS011;47868;51.326;6.550;2022-12-29T05:26:42;2.95;;;1.10;;
61915;SDS011;47868;51.326;6.550;2022-12-29T05:29:08;1.35;;;1.00;;
61915;SDS011;47868;51.326;6.550;2022-12-29T05:31:34;1.67;;;1.00;;
61915;SDS011;47868;51.326;6.550;2022-12-29T05:34:00;2.30;;;0.85;;
61915;SDS011;47868;51.326;6.550;2022-12-29T05:36:26;2.15;;;1.05;;
61915;SDS011;47868;51.326;6.550;2022-12-29T05:38:52;2.65;;;0.82;;
61915;SDS011;47868;51.326;6.550;2022-12-29T05:41:18;2.97;;;0.82;;
61915;SDS011;47868;51.326;6.550;2022-12-29T05:43:45;1.67;;;0.90;;
61915;SDS011;47868;51.326;6.550;2022-12-29T05:46:11;1.90;;;1.05;;
61915;SDS011;47868;51.326;6.550;2022-12-29T05:48:37;3.50;;;2.28;;
61915;SDS011;47868;51.326;6.550;2022-12-29T05:51:03;2.03;;;1.20;;
61915;SDS011;47868;51.326;6.550;2022-12-29T05:53:29;1.85;;;1.05;;
61915;SDS011;47868;51.326;6.550;2022-12-29T05:55:55;2.17;;;1.20;;
61915;SDS011;47868;51.326;6.550;2022-12-29T05:58:21;3.38;;;1.30;;
61915;SDS011;47868;51.326;6.550;2022-12-29T06:00:47;1.50;;;1.20;;
61915;SDS011;47868;51.326;6.550;2022-12-29T06:03:13;1.75;;;1.00;;
61915;SDS011;47868;51.326;6.550;2022-12-29T06:05:39;4.40;;;1.70;;
61915;SDS011;47868;51.326;6.550;2022-12-29T06:08:05;3.67;;;1.35;;
61915;SDS011;47868;51.326;6.550;2022-12-29T06:10:31;1.65;;;1.00;;
61915;SDS011;47868;51.326;6.550;2022-12-29T06:12:57;1.98;;;1.23;;
61915;SDS011;47868;51.326;6.550;2022-12-29T06:15:23;3.95;;;1.10;;
61915;SDS011;47868;51.326;6.550;2022-12-29T06:17:49;2.50;;;1.35;;
61915;SDS011;47868;51.326;6.550;2022-12-29T06:20:15;2.92;;;1.50;;
61915;SDS011;47868;51.326;6.550;2022-12-29T06:22:41;3.53;;;1.38;;
61915;SDS011;47868;51.326;6.550;2022-12-29T06:25:07;3.45;;;1.20;;
61915;SDS011;47868;51.326;6.550;2022-12-29T06:27:33;2.78;;;1.40;;
61915;SDS011;47868;51.326;6.550;2022-12-29T06:29:59;2.30;;;1.38;;
61915;SDS011;47868;51.326;6.550;2022-12-29T06:32:25;2.13;;;1.35;;
61915;SDS011;47868;51.326;6.550;2022-12-29T06:34:51;2.13;;;1.33;;
61915;SDS011;47868;51.326;6.550;2022-12-29T06:37:17;2.38;;;1.30;;
61915;SDS011;47868;51.326;6.550;2022-12-29T06:39:43;4.28;;;1.30;;
61915;SDS011;47868;51.326;6.550;2022-12-29T06:42:09;4.10;;;1.30;;
61915;SDS011;47868;51.326;6.550;2022-12-29T06:44:35;4.72;;;1.30;;
61915;SDS011;47868;51.326;6.550;2022-12-29T06:47:01;6.20;;;1.40;;
61915;SDS011;47868;51.326;6.550;2022-12-29T06:49:27;3.80;;;1.27;;
61915;SDS011;47868;51.326;6.550;2022-12-29T06:51:53;4.30;;;1.42;;
61915;SDS011;47868;51.326;6.550;2022-12-29T06:54:19;2.85;;;1.50;;
61915;SDS011;47868;51.326;6.550;2022-12-29T06:56:45;2.80;;;1.13;;
61915;SDS011;47868;51.326;6.550;2022-12-29T06:59:11;3.25;;;1.27;;
61915;SDS011;47868;51.326;6.550;2022-12-29T07:01:37;3.78;;;1.48;;
61915;SDS011;47868;51.326;6.550;2022-12-29T07:04:03;1.90;;;1.23;;
61915;SDS011;47868;51.326;6.550;2022-12-29T07:06:29;1.02;;;0.90;;
61915;SDS011;47868;51.326;6.550;2022-12-29T07:08:55;5.30;;;1.70;;
61915;SDS011;47868;51.326;6.550;2022-12-29T07:11:22;2.65;;;1.38;;
61915;SDS011;47868;51.326;6.550;2022-12-29T07:13:48;3.35;;;1.27;;
61915;SDS011;47868;51.326;6.550;2022-12-29T07:16:14;6.07;;;1.50;;
61915;SDS011;47868;51.326;6.550;2022-12-29T07:18:40;3.03;;;1.33;;
61915;SDS011;47868;51.326;6.550;2022-12-29T07:21:06;4.45;;;1.50;;
61915;SDS011;47868;51.326;6.550;2022-12-29T07:23:32;3.08;;;1.58;;
61915;SDS011;47868;51.326;6.550;2022-12-29T07:26:05;6.03;;;1.67;;
61915;SDS011;47868;51.326;6.550;2022-12-29T07:28:32;2.78;;;1.40;;
61915;SDS011;47868;51.326;6.550;2022-12-29T07:30:58;4.65;;;1.85;;
61915;SDS011;47868;51.326;6.550;2022-12-29T07:33:24;7.88;;;1.83;;
61915;SDS011;47868;51.326;6.550;2022-12-29T07:35:50;6.82;;;1.60;;
61915;SDS011;47868;51.326;6.550;2022-12-29T07:38:17;4.55;;;1.30;;
61915;SDS011;47868;51.326;6.550;2022-12-29T07:40:43;10.52;;;1.98;;
61915;SDS011;47868;51.326;6.550;2022-12-29T07:43:09;3.90;;;1.33;;
61915;SDS011;47868;51.326;6.550;2022-12-29T07:45:35;5.20;;;1.85;;
61915;SDS011;47868;51.326;6.550;2022-12-29T07:48:01;3.50;;;1.60;;
61915;SDS011;47868;51.326;6.550;2022-12-29T07:50:32;5.13;;;1.50;;
61915;SDS011;47868;51.326;6.550;2022-12-29T07:52:58;8.23;;;1.77;;
61915;SDS011;47868;51.326;6.550;2022-12-29T07:55:24;5.32;;;1.73;;
61915;SDS011;47868;51.326;6.550;2022-12-29T07:57:52;4.15;;;1.65;;
61915;SDS011;47868;51.326;6.550;2022-12-29T08:00:18;5.70;;;1.77;;
61915;SDS011;47868;51.326;6.550;2022-12-29T08:02:44;6.28;;;1.55;;
61915;SDS011;47868;51.326;6.550;2022-12-29T08:05:10;4.20;;;1.77;;
61915;SDS011;47868;51.326;6.550;2022-12-29T08:07:36;3.70;;;1.52;;
61915;SDS011;47868;51.326;6.550;2022-12-29T08:10:02;5.80;;;1.50;;
61915;SDS011;47868;51.326;6.550;2022-12-29T08:12:29;6.60;;;2.03;;
61915;SDS011;47868;51.326;6.550;2022-12-29T08:14:55;6.15;;;1.90;;
61915;SDS011;47868;51.326;6.550;2022-12-29T08:17:21;5.22;;;1.67;;
61915;SDS011;47868;51.326;6.550;2022-12-29T08:19:47;8.88;;;2.28;;
61915;SDS011;47868;51.326;6.550;2022-12-29T08:22:13;5.40;;;1.80;;
61915;SDS011;47868;51.326;6.550;2022-12-29T08:24:40;5.22;;;1.75;;
61915;SDS011;47868;51.326;6.550;2022-12-29T08:27:06;4.47;;;1.77;;
61915;SDS011;47868;51.326;6.550;2022-12-29T08:29:32;5.43;;;1.85;;
61915;SDS011;47868;51.326;6.550;2022-12-29T08:31:58;3.38;;;1.50;;
61915;SDS011;47868;51.326;6.550;2022-12-29T08:34:24;5.45;;;1.55;;
61915;SDS011;47868;51.326;6.550;2022-12-29T08:36:50;10.00;;;1.83;;
61915;SDS011;47868;51.326;6.550;2022-12-29T08:39:16;8.52;;;1.90;;
61915;SDS011;47868;51.326;6.550;2022-12-29T08:41:42;5.88;;;2.22;;
61915;SDS011;47868;51.326;6.550;2022-12-29T08:44:08;5.93;;;1.90;;
61915;SDS011;47868;51.326;6.550;2022-12-29T08:46:33;6.60;;;1.80;;
61915;SDS011;47868;51.326;6.550;2022-12-29T08:49:00;4.18;;;1.98;;
61915;SDS011;47868;51.326;6.550;2022-12-29T08:51:26;7.93;;;1.90;;
61915;SDS011;47868;51.326;6.550;2022-12-29T08:53:52;5.50;;;2.08;;
61915;SDS011;47868;51.326;6.550;2022-12-29T08:56:18;5.00;;;1.73;;
61915;SDS011;47868;51.326;6.550;2022-12-29T08:58:44;6.45;;;1.95;;
61915;SDS011;47868;51.326;6.550;2022-12-29T09:01:10;5.68;;;1.75;;
61915;SDS011;47868;51.326;6.550;2022-12-29T09:03:36;4.72;;;1.75;;
61915;SDS011;47868;51.326;6.550;2022-12-29T09:06:02;6.30;;;1.95;;
61915;SDS011;47868;51.326;6.550;2022-12-29T09:08:28;7.07;;;2.10;;
61915;SDS011;47868;51.326;6.550;2022-12-29T09:10:54;8.85;;;2.45;;
61915;SDS011;47868;51.326;6.550;2022-12-29T09:13:21;3.67;;;1.80;;
61915;SDS011;47868;51.326;6.550;2022-12-29T09:15:47;8.77;;;2.33;;
61915;SDS011;47868;51.326;6.550;2022-12-29T09:18:13;6.95;;;2.08;;
61915;SDS011;47868;51.326;6.550;2022-12-29T09:20:39;7.38;;;2.20;;
61915;SDS011;47868;51.326;6.550;2022-12-29T09:23:05;5.28;;;1.90;;
61915;SDS011;47868;51.326;6.550;2022-12-29T09:25:31;8.73;;;2.00;;
61915;SDS011;47868;51.326;6.550;2022-12-29T09:27:57;6.05;;;1.98;;
61915;SDS011;47868;51.326;6.550;2022-12-29T09:30:23;5.25;;;2.05;;
61915;SDS011;47868;51.326;6.550;2022-12-29T09:32:49;9.10;;;2.13;;
61915;SDS011;47868;51.326;6.550;2022-12-29T09:35:16;11.10;;;2.45;;
61915;SDS011;47868;51.326;6.550;2022-12-29T09:37:42;10.82;;;2.45;;
61915;SDS011;47868;51.326;6.550;2022-12-29T09:40:22;9.30;;;2.05;;
61915;SDS011;47868;51.326;6.550;2022-12-29T09:42:58;9.05;;;2.08;;
61915;SDS011;47868;51.326;6.550;2022-12-29T09:45:29;8.93;;;2.20;;
61915;SDS011;47868;51.326;6.550;2022-12-29T09:47:58;6.68;;;1.98;;
61915;SDS011;47868;51.326;6.550;2022-12-29T09:52:53;8.40;;;1.98;;
61915;SDS011;47868;51.326;6.550;2022-12-29T09:55:21;5.07;;;1.85;;
61915;SDS011;47868;51.326;6.550;2022-12-29T10:00:18;7.35;;;2.35;;
61915;SDS011;47868;51.326;6.550;2022-12-29T10:02:58;7.97;;;2.30;;
61915;SDS011;47868;51.326;6.550;2022-12-29T10:10:31;5.18;;;1.92;;
61915;SDS011;47868;51.326;6.550;2022-12-29T10:25:47;8.40;;;1.90;;
61915;SDS011;47868;51.326;6.550;2022-12-29T10:28:22;5.95;;;1.70;;
61915;SDS011;47868;51.326;6.550;2022-12-29T10:30:48;6.05;;;2.60;;
61915;SDS011;47868;51.326;6.550;2022-12-29T10:33:17;7.60;;;2.42;;
61915;SDS011;47868;51.326;6.550;2022-12-29T10:35:44;3.97;;;2.00;;
61915;SDS011;47868;51.326;6.550;2022-12-29T10:45:48;5.22;;;2.00;;
61915;SDS011;47868;51.326;6.550;2022-12-29T10:48:35;7.13;;;2.30;;
61915;SDS011;47868;51.326;6.550;2022-12-29T10:51:02;10.57;;;2.38;;
61915;SDS011;47868;51.326;6.550;2022-12-29T10:53:43;6.95;;;2.20;;
61915;SDS011;47868;51.326;6.550;2022-12-29T10:56:21;12.98;;;2.33;;
61915;SDS011;47868;51.326;6.550;2022-12-29T10:58:51;11.35;;;2.40;;
61915;SDS011;47868;51.326;6.550;2022-12-29T11:01:20;12.07;;;2.35;;
61915;SDS011;47868;51.326;6.550;2022-12-29T11:03:51;6.63;;;2.30;;
61915;SDS011;47868;51.326;6.550;2022-12-29T11:06:26;6.82;;;2.28;;
61915;SDS011;47868;51.326;6.550;2022-12-29T11:08:58;6.60;;;2.45;;
61915;SDS011;47868;51.326;6.550;2022-12-29T11:11:34;9.55;;;2.42;;
61915;SDS011;47868;51.326;6.550;2022-12-29T11:14:16;8.65;;;2.20;;
61915;SDS011;47868;51.326;6.550;2022-12-29T11:16:43;7.30;;;2.40;;
61915;SDS011;47868;51.326;6.550;2022-12-29T11:19:23;6.40;;;2.08;;
61915;SDS011;47868;51.326;6.550;2022-12-29T11:21:50;8.75;;;2.53;;
61915;SDS011;47868;51.326;6.550;2022-12-29T11:26:51;5.93;;;2.35;;
61915;SDS011;47868;51.326;6.550;2022-12-29T11:31:52;9.40;;;2.30;;
61915;SDS011;47868;51.326;6.550;2022-12-29T11:34:52;7.72;;;2.47;;
61915;SDS011;47868;51.326;6.550;2022-12-29T11:37:12;6.95;;;2.65;;
61915;SDS011;47868;51.326;6.550;2022-12-29T11:39:59;8.23;;;2.50;;
61915;SDS011;47868;51.326;6.550;2022-12-29T11:44:58;7.18;;;2.20;;
61915;SDS011;47868;51.326;6.550;2022-12-29T11:47:29;7.45;;;2.05;;
61915;SDS011;47868;51.326;6.550;2022-12-29T11:49:57;11.10;;;2.08;;
61915;SDS011;47868;51.326;6.550;2022-12-29T11:52:27;6.97;;;1.83;;
61915;SDS011;47868;51.326;6.550;2022-12-29T11:54:54;11.07;;;2.97;;
61915;SDS011;47868;51.326;6.550;2022-12-29T11:57:21;7.85;;;2.40;;
61915;SDS011;47868;51.326;6.550;2022-12-29T12:04:46;9.65;;;2.50;;
61915;SDS011;47868;51.326;6.550;2022-12-29T12:07:15;8.27;;;2.25;;
61915;SDS011;47868;51.326;6.550;2022-12-29T12:09:47;6.95;;;2.45;;
61915;SDS011;47868;51.326;6.550;2022-12-29T12:12:30;5.55;;;1.90;;
61915;SDS011;47868;51.326;6.550;2022-12-29T12:14:59;6.30;;;1.73;;
61915;SDS011;47868;51.326;6.550;2022-12-29T12:22:41;6.53;;;2.03;;
61915;SDS011;47868;51.326;6.550;2022-12-29T12:27:41;7.82;;;2.05;;
61915;SDS011;47868;51.326;6.550;2022-12-29T12:35:13;4.70;;;2.00;;
61915;SDS011;47868;51.326;6.550;2022-12-29T12:53:08;8.70;;;2.67;;
61915;SDS011;47868;51.326;6.550;2022-12-29T13:00:56;8.00;;;2.22;;
61915;SDS011;47868;51.326;6.550;2022-12-29T13:11:42;7.30;;;2.08;;
61915;SDS011;47868;51.326;6.550;2022-12-29T13:22:02;7.75;;;2.30;;
61915;SDS011;47868;51.326;6.550;2022-12-29T13:27:23;7.00;;;2.08;;
61915;SDS011;47868;51.326;6.550;2022-12-29T13:35:09;7.95;;;2.28;;
61915;SDS011;47868;51.326;6.550;2022-12-29T13:37:41;7.78;;;2.17;;
61915;SDS011;47868;51.326;6.550;2022-12-29T13:40:12;9.52;;;2.50;;
61915;SDS011;47868;51.326;6.550;2022-12-29T13:42:40;5.85;;;2.38;;
61915;SDS011;47868;51.326;6.550;2022-12-29T13:45:09;5.82;;;2.88;;
61915;SDS011;47868;51.326;6.550;2022-12-29T13:47:52;6.22;;;2.03;;
61915;SDS011;47868;51.326;6.550;2022-12-29T13:50:21;12.13;;;2.25;;
61915;SDS011;47868;51.326;6.550;2022-12-29T13:58:07;9.23;;;2.35;;
61915;SDS011;47868;51.326;6.550;2022-12-29T14:00:51;9.00;;;1.75;;
61915;SDS011;47868;51.326;6.550;2022-12-29T14:06:39;6.93;;;2.10;;
61915;SDS011;47868;51.326;6.550;2022-12-29T14:17:34;5.93;;;2.25;;
61915;SDS011;47868;51.326;6.550;2022-12-29T14:20:01;6.40;;;2.05;;
61915;SDS011;47868;51.326;6.550;2022-12-29T14:22:29;8.23;;;2.28;;
61915;SDS011;47868;51.326;6.550;2022-12-29T14:24:54;5.40;;;2.15;;
61915;SDS011;47868;51.326;6.550;2022-12-29T14:29:49;9.23;;;2.13;;
61915;SDS011;47868;51.326;6.550;2022-12-29T14:34:57;5.93;;;2.25;;
61915;SDS011;47868;51.326;6.550;2022-12-29T14:40:16;5.88;;;2.47;;
61915;SDS011;47868;51.326;6.550;2022-12-29T14:42:43;10.07;;;2.30;;
61915;SDS011;47868;51.326;6.550;2022-12-29T14:47:40;8.07;;;2.63;;
61915;SDS011;47868;51.326;6.550;2022-12-29T15:00:48;11.02;;;2.53;;
61915;SDS011;47868;51.326;6.550;2022-12-29T15:03:18;5.32;;;1.73;;
61915;SDS011;47868;51.326;6.550;2022-12-29T15:06:07;8.63;;;1.98;;
61915;SDS011;47868;51.326;6.550;2022-12-29T15:08:42;6.85;;;2.13;;
61915;SDS011;47868;51.326;6.550;2022-12-29T15:11:19;4.78;;;2.10;;
61915;SDS011;47868;51.326;6.550;2022-12-29T15:13:48;7.93;;;1.77;;
61915;SDS011;47868;51.326;6.550;2022-12-29T15:16:21;8.70;;;2.30;;
61915;SDS011;47868;51.326;6.550;2022-12-29T15:18:54;9.93;;;2.22;;
61915;SDS011;47868;51.326;6.550;2022-12-29T15:21:22;5.90;;;2.15;;
61915;SDS011;47868;51.326;6.550;2022-12-29T15:23:51;7.15;;;2.20;;
61915;SDS011;47868;51.326;6.550;2022-12-29T15:26:17;7.03;;;2.40;;
61915;SDS011;47868;51.326;6.550;2022-12-29T15:28:47;9.77;;;2.42;;
61915;SDS011;47868;51.326;6.550;2022-12-29T15:31:21;10.98;;;2.67;;
61915;SDS011;47868;51.326;6.550;2022-12-29T15:33:53;8.15;;;2.50;;
61915;SDS011;47868;51.326;6.550;2022-12-29T15:36:27;8.50;;;2.25;;
61915;SDS011;47868;51.326;6.550;2022-12-29T15:38:54;9.35;;;2.20;;
61915;SDS011;47868;51.326;6.550;2022-12-29T15:41:25;7.95;;;2.10;;
61915;SDS011;47868;51.326;6.550;2022-12-29T15:44:03;6.47;;;2.08;;
61915;SDS011;47868;51.326;6.550;2022-12-29T15:46:32;10.05;;;2.38;;
61915;SDS011;47868;51.326;6.550;2022-12-29T15:48:58;6.65;;;2.33;;
61915;SDS011;47868;51.326;6.550;2022-12-29T15:53:50;5.57;;;1.95;;
61915;SDS011;47868;51.326;6.550;2022-12-29T15:56:17;7.15;;;2.45;;
61915;SDS011;47868;51.326;6.550;2022-12-29T15:58:47;8.32;;;2.72;;
61915;SDS011;47868;51.326;6.550;2022-12-29T16:01:19;5.88;;;2.00;;
61915;SDS011;47868;51.326;6.550;2022-12-29T16:03:49;7.80;;;2.63;;
61915;SDS011;47868;51.326;6.550;2022-12-29T16:06:32;9.98;;;3.22;;
61915;SDS011;47868;51.326;6.550;2022-12-29T16:09:14;12.23;;;2.95;;
61915;SDS011;47868;51.326;6.550;2022-12-29T16:11:45;8.00;;;3.10;;
61915;SDS011;47868;51.326;6.550;2022-12-29T16:14:32;8.85;;;2.30;;
61915;SDS011;47868;51.326;6.550;2022-12-29T16:17:00;10.95;;;3.10;;
61915;SDS011;47868;51.326;6.550;2022-12-29T16:19:29;7.82;;;2.58;;
61915;SDS011;47868;51.326;6.550;2022-12-29T16:21:58;8.52;;;2.92;;
61915;SDS011;47868;51.326;6.550;2022-12-29T16:24:25;7.13;;;2.75;;
61915;SDS011;47868;51.326;6.550;2022-12-29T16:26:57;8.95;;;2.85;;
61915;SDS011;47868;51.326;6.550;2022-12-29T16:29:25;9.70;;;2.58;;
61915;SDS011;47868;51.326;6.550;2022-12-29T16:31:53;7.75;;;2.40;;
61915;SDS011;47868;51.326;6.550;2022-12-29T16:39:48;12.43;;;3.03;;
61915;SDS011;47868;51.326;6.550;2022-12-29T16:45:20;10.95;;;3.42;;
61915;SDS011;47868;51.326;6.550;2022-12-29T16:50:34;12.18;;;3.15;;
61915;SDS011;47868;51.326;6.550;2022-12-29T16:53:01;8.73;;;2.50;;
61915;SDS011;47868;51.326;6.550;2022-12-29T16:55:28;12.82;;;3.35;;
61915;SDS011;47868;51.326;6.550;2022-12-29T16:57:54;8.32;;;2.15;;
61915;SDS011;47868;51.326;6.550;2022-12-29T17:00:26;2.40;;;1.45;;
61915;SDS011;47868;51.326;6.550;2022-12-29T17:02:53;5.30;;;1.92;;
61915;SDS011;47868;51.326;6.550;2022-12-29T17:05:20;2.67;;;1.70;;
61915;SDS011;47868;51.326;6.550;2022-12-29T17:07:47;2.42;;;1.38;;
61915;SDS011;47868;51.326;6.550;2022-12-29T17:10:13;2.92;;;1.67;;
61915;SDS011;47868;51.326;6.550;2022-12-29T17:12:39;3.78;;;1.30;;
61915;SDS011;47868;51.326;6.550;2022-12-29T17:17:46;2.67;;;1.30;;
61915;SDS011;47868;51.326;6.550;2022-12-29T17:20:14;2.13;;;1.10;;
61915;SDS011;47868;51.326;6.550;2022-12-29T17:22:43;2.30;;;1.30;;
61915;SDS011;47868;51.326;6.550;2022-12-29T17:25:13;2.03;;;1.20;;
61915;SDS011;47868;51.326;6.550;2022-12-29T17:27:44;2.60;;;1.10;;
61915;SDS011;47868;51.326;6.550;2022-12-29T17:30:15;1.80;;;1.25;;
61915;SDS011;47868;51.326;6.550;2022-12-29T17:32:43;2.38;;;1.23;;
61915;SDS011;47868;51.326;6.550;2022-12-29T17:35:17;3.78;;;1.08;;
61915;SDS011;47868;51.326;6.550;2022-12-29T17:37:44;4.72;;;1.70;;
61915;SDS011;47868;51.326;6.550;2022-12-29T17:40:20;2.42;;;1.50;;
61915;SDS011;47868;51.326;6.550;2022-12-29T17:42:49;3.95;;;1.55;;
61915;SDS011;47868;51.326;6.550;2022-12-29T17:45:18;3.72;;;1.70;;
61915;SDS011;47868;51.326;6.550;2022-12-29T17:47:46;3.97;;;1.73;;
61915;SDS011;47868;51.326;6.550;2022-12-29T17:50:12;3.08;;;1.70;;
61915;SDS011;47868;51.326;6.550;2022-12-29T17:52:40;5.00;;;2.80;;
61915;SDS011;47868;51.326;6.550;2022-12-29T17:55:17;5.90;;;2.50;;
61915;SDS011;47868;51.326;6.550;2022-12-29T17:57:44;2.67;;;2.10;;
61915;SDS011;47868;51.326;6.550;2022-12-29T18:00:18;4.30;;;2.30;;
61915;SDS011;47868;51.326;6.550;2022-12-29T18:02:54;6.47;;;1.98;;